sensor_id;sensor_type;location;lat;lon;timestamp;P1;durP1;ratioP1;P2;durP2;ratioP2
33190;SDS011;19554;42.652;23.364;2023-02-28T00:02:19;27.92;;;16.48;;
33190;SDS011;19554;42.652;23.364;2023-02-28T00:04:45;27.45;;;17.40;;
33190;SDS011;19554;42.652;23.364;2023-02-28T00:07:11;29.90;;;17.60;;
33190;SDS011;19554;42.652;23.364;2023-02-28T00:09:36;30.10;;;17.38;;
33190;SDS011;19554;42.652;23.364;2023-02-28T00:12:01;31.63;;;18.00;;
33190;SDS011;19554;42.652;23.364;2023-02-28T00:14:35;27.52;;;16.52;;
33190;SDS011;19554;42.652;23.364;2023-02-28T00:17:00;30.23;;;18.45;;
33190;SDS011;19554;42.652;23.364;2023-02-28T00:19:26;28.70;;;16.85;;
33190;SDS011;19554;42.652;23.364;2023-02-28T00:21:51;28.88;;;16.60;;
33190;SDS011;19554;42.652;23.364;2023-02-28T00:24:16;30.13;;;16.40;;
33190;SDS011;19554;42.652;23.364;2023-02-28T00:26:42;29.58;;;16.88;;
33190;SDS011;19554;42.652;23.364;2023-02-28T00:29:07;27.08;;;15.93;;
33190;SDS011;19554;42.652;23.364;2023-02-28T00:31:32;27.67;;;16.45;;
33190;SDS011;19554;42.652;23.364;2023-02-28T00:33:58;25.48;;;15.50;;
33190;SDS011;19554;42.652;23.364;2023-02-28T00:36:23;29.45;;;16.40;;
33190;SDS011;19554;42.652;23.364;2023-02-28T00:38:48;28.55;;;16.83;;
33190;SDS011;19554;42.652;23.364;2023-02-28T00:41:14;28.52;;;17.08;;
33190;SDS011;19554;42.652;23.364;2023-02-28T00:43:39;28.45;;;16.77;;
33190;SDS011;19554;42.652;23.364;2023-02-28T00:46:05;33.03;;;18.52;;
33190;SDS011;19554;42.652;23.364;2023-02-28T00:48:31;31.48;;;18.63;;
33190;SDS011;19554;42.652;23.364;2023-02-28T00:50:57;30.13;;;18.92;;
33190;SDS011;19554;42.652;23.364;2023-02-28T00:53:22;35.85;;;19.77;;
33190;SDS011;19554;42.652;23.364;2023-02-28T00:55:48;30.10;;;18.88;;
33190;SDS011;19554;42.652;23.364;2023-02-28T00:58:14;29.50;;;18.45;;
33190;SDS011;19554;42.652;23.364;2023-02-28T01:00:40;33.17;;;20.15;;
33190;SDS011;19554;42.652;23.364;2023-02-28T01:03:05;29.92;;;18.48;;
33190;SDS011;19554;42.652;23.364;2023-02-28T01:05:30;34.10;;;19.75;;
33190;SDS011;19554;42.652;23.364;2023-02-28T01:07:56;31.45;;;18.65;;
33190;SDS011;19554;42.652;23.364;2023-02-28T01:10:21;31.77;;;17.98;;
33190;SDS011;19554;42.652;23.364;2023-02-28T01:12:47;33.40;;;19.85;;
33190;SDS011;19554;42.652;23.364;2023-02-28T01:15:12;32.72;;;19.10;;
33190;SDS011;19554;42.652;23.364;2023-02-28T01:17:37;32.85;;;20.58;;
33190;SDS011;19554;42.652;23.364;2023-02-28T01:20:03;33.88;;;19.65;;
33190;SDS011;19554;42.652;23.364;2023-02-28T01:22:29;32.10;;;19.48;;
33190;SDS011;19554;42.652;23.364;2023-02-28T01:24:54;34.90;;;20.23;;
33190;SDS011;19554;42.652;23.364;2023-02-28T01:27:19;46.08;;;23.08;;
33190;SDS011;19554;42.652;23.364;2023-02-28T01:29:45;39.67;;;24.20;;
33190;SDS011;19554;42.652;23.364;2023-02-28T01:32:10;42.33;;;23.73;;
33190;SDS011;19554;42.652;23.364;2023-02-28T01:34:36;42.78;;;24.38;;
33190;SDS011;19554;42.652;23.364;2023-02-28T01:37:01;46.47;;;24.73;;
33190;SDS011;19554;42.652;23.364;2023-02-28T01:39:28;42.38;;;23.73;;
33190;SDS011;19554;42.652;23.364;2023-02-28T01:41:54;45.03;;;24.30;;
33190;SDS011;19554;42.652;23.364;2023-02-28T01:47:23;46.80;;;25.55;;
33190;SDS011;19554;42.652;23.364;2023-02-28T01:49:53;51.92;;;25.30;;
33190;SDS011;19554;42.652;23.364;2023-02-28T01:52:19;41.97;;;24.15;;
33190;SDS011;19554;42.652;23.364;2023-02-28T01:54:46;41.67;;;24.25;;
33190;SDS011;19554;42.652;23.364;2023-02-28T01:57:18;36.92;;;21.95;;
33190;SDS011;19554;42.652;23.364;2023-02-28T01:59:49;37.28;;;22.25;;
33190;SDS011;19554;42.652;23.364;2023-02-28T02:02:20;36.47;;;21.75;;
33190;SDS011;19554;42.652;23.364;2023-02-28T02:04:58;39.63;;;21.55;;
33190;SDS011;19554;42.652;23.364;2023-02-28T02:07:29;35.42;;;21.83;;
33190;SDS011;19554;42.652;23.364;2023-02-28T02:10:02;36.80;;;21.15;;
33190;SDS011;19554;42.652;23.364;2023-02-28T02:15:03;37.78;;;22.10;;
33190;SDS011;19554;42.652;23.364;2023-02-28T02:17:40;34.88;;;20.73;;
33190;SDS011;19554;42.652;23.364;2023-02-28T02:36:48;32.08;;;18.48;;
33190;SDS011;19554;42.652;23.364;2023-02-28T02:42:34;32.78;;;19.95;;
33190;SDS011;19554;42.652;23.364;2023-02-28T02:45:09;35.83;;;20.20;;
33190;SDS011;19554;42.652;23.364;2023-02-28T02:47:39;37.20;;;20.67;;
33190;SDS011;19554;42.652;23.364;2023-02-28T02:50:08;34.28;;;20.02;;
33190;SDS011;19554;42.652;23.364;2023-02-28T02:52:42;36.55;;;20.88;;
33190;SDS011;19554;42.652;23.364;2023-02-28T02:55:12;34.22;;;20.70;;
33190;SDS011;19554;42.652;23.364;2023-02-28T02:57:50;37.10;;;21.85;;
33190;SDS011;19554;42.652;23.364;2023-02-28T03:00:25;39.28;;;21.90;;
33190;SDS011;19554;42.652;23.364;2023-02-28T03:02:58;35.15;;;21.20;;
33190;SDS011;19554;42.652;23.364;2023-02-28T03:05:27;41.75;;;23.80;;
33190;SDS011;19554;42.652;23.364;2023-02-28T03:07:58;45.85;;;24.98;;
33190;SDS011;19554;42.652;23.364;2023-02-28T03:10:27;44.30;;;23.60;;
33190;SDS011;19554;42.652;23.364;2023-02-28T03:15:35;38.35;;;23.42;;
33190;SDS011;19554;42.652;23.364;2023-02-28T03:18:22;39.97;;;23.55;;
33190;SDS011;19554;42.652;23.364;2023-02-28T03:21:19;41.63;;;23.80;;
33190;SDS011;19554;42.652;23.364;2023-02-28T03:26:30;39.47;;;22.67;;
33190;SDS011;19554;42.652;23.364;2023-02-28T03:29:03;37.88;;;22.75;;
33190;SDS011;19554;42.652;23.364;2023-02-28T03:31:41;45.53;;;24.02;;
33190;SDS011;19554;42.652;23.364;2023-02-28T03:36:55;47.08;;;24.83;;
33190;SDS011;19554;42.652;23.364;2023-02-28T03:39:26;47.60;;;24.90;;
33190;SDS011;19554;42.652;23.364;2023-02-28T03:41:59;43.35;;;24.63;;
33190;SDS011;19554;42.652;23.364;2023-02-28T03:44:30;46.75;;;25.67;;
33190;SDS011;19554;42.652;23.364;2023-02-28T03:47:02;46.47;;;25.65;;
33190;SDS011;19554;42.652;23.364;2023-02-28T03:49:35;51.25;;;26.58;;
33190;SDS011;19554;42.652;23.364;2023-02-28T03:52:08;56.45;;;27.30;;
33190;SDS011;19554;42.652;23.364;2023-02-28T03:54:39;52.83;;;27.30;;
33190;SDS011;19554;42.652;23.364;2023-02-28T03:57:15;56.67;;;27.17;;
33190;SDS011;19554;42.652;23.364;2023-02-28T03:59:56;54.75;;;26.65;;
33190;SDS011;19554;42.652;23.364;2023-02-28T04:02:27;52.97;;;27.30;;
33190;SDS011;19554;42.652;23.364;2023-02-28T04:04:52;111.20;;;30.23;;
33190;SDS011;19554;42.652;23.364;2023-02-28T04:07:18;107.40;;;28.38;;
33190;SDS011;19554;42.652;23.364;2023-02-28T04:09:44;65.97;;;26.75;;
33190;SDS011;19554;42.652;23.364;2023-02-28T04:12:09;74.82;;;24.25;;
33190;SDS011;19554;42.652;23.364;2023-02-28T04:14:35;57.58;;;25.88;;
33190;SDS011;19554;42.652;23.364;2023-02-28T04:17:00;45.63;;;23.42;;
33190;SDS011;19554;42.652;23.364;2023-02-28T04:19:25;53.05;;;24.50;;
33190;SDS011;19554;42.652;23.364;2023-02-28T04:21:51;88.30;;;24.45;;
33190;SDS011;19554;42.652;23.364;2023-02-28T04:24:19;50.90;;;24.38;;
33190;SDS011;19554;42.652;23.364;2023-02-28T04:26:46;54.83;;;26.17;;
33190;SDS011;19554;42.652;23.364;2023-02-28T04:29:15;50.47;;;25.05;;
33190;SDS011;19554;42.652;23.364;2023-02-28T04:31:44;39.88;;;23.38;;
33190;SDS011;19554;42.652;23.364;2023-02-28T04:34:09;54.25;;;26.50;;
33190;SDS011;19554;42.652;23.364;2023-02-28T04:36:35;65.20;;;26.58;;
33190;SDS011;19554;42.652;23.364;2023-02-28T04:39:00;44.63;;;23.80;;
33190;SDS011;19554;42.652;23.364;2023-02-28T04:41:26;59.95;;;25.92;;
33190;SDS011;19554;42.652;23.364;2023-02-28T04:43:51;53.55;;;24.83;;
33190;SDS011;19554;42.652;23.364;2023-02-28T04:46:17;47.63;;;25.45;;
33190;SDS011;19554;42.652;23.364;2023-02-28T04:48:43;63.13;;;23.30;;
33190;SDS011;19554;42.652;23.364;2023-02-28T04:51:10;42.45;;;21.80;;
33190;SDS011;19554;42.652;23.364;2023-02-28T04:53:38;44.83;;;23.80;;
33190;SDS011;19554;42.652;23.364;2023-02-28T04:56:04;59.88;;;25.23;;
33190;SDS011;19554;42.652;23.364;2023-02-28T04:58:31;83.50;;;28.33;;
33190;SDS011;19554;42.652;23.364;2023-02-28T05:01:06;64.93;;;28.73;;
33190;SDS011;19554;42.652;23.364;2023-02-28T05:03:41;54.13;;;27.38;;
33190;SDS011;19554;42.652;23.364;2023-02-28T05:06:08;87.80;;;31.80;;
33190;SDS011;19554;42.652;23.364;2023-02-28T05:08:34;61.45;;;31.58;;
33190;SDS011;19554;42.652;23.364;2023-02-28T05:10:59;58.53;;;31.73;;
33190;SDS011;19554;42.652;23.364;2023-02-28T05:13:26;61.08;;;31.55;;
33190;SDS011;19554;42.652;23.364;2023-02-28T05:15:51;65.35;;;32.50;;
33190;SDS011;19554;42.652;23.364;2023-02-28T05:18:17;71.28;;;34.65;;
33190;SDS011;19554;42.652;23.364;2023-02-28T05:20:42;83.15;;;36.80;;
33190;SDS011;19554;42.652;23.364;2023-02-28T05:23:08;67.70;;;34.15;;
33190;SDS011;19554;42.652;23.364;2023-02-28T05:25:36;75.68;;;36.08;;
33190;SDS011;19554;42.652;23.364;2023-02-28T05:28:02;85.38;;;36.72;;
33190;SDS011;19554;42.652;23.364;2023-02-28T05:30:28;74.47;;;35.80;;
33190;SDS011;19554;42.652;23.364;2023-02-28T05:32:53;69.68;;;32.80;;
33190;SDS011;19554;42.652;23.364;2023-02-28T05:35:18;77.13;;;33.25;;
33190;SDS011;19554;42.652;23.364;2023-02-28T05:37:44;66.75;;;32.85;;
33190;SDS011;19554;42.652;23.364;2023-02-28T05:40:09;71.35;;;32.55;;
33190;SDS011;19554;42.652;23.364;2023-02-28T05:42:36;67.80;;;33.20;;
33190;SDS011;19554;42.652;23.364;2023-02-28T05:45:02;66.78;;;32.40;;
33190;SDS011;19554;42.652;23.364;2023-02-28T05:47:27;70.90;;;33.00;;
33190;SDS011;19554;42.652;23.364;2023-02-28T05:49:53;57.38;;;30.35;;
33190;SDS011;19554;42.652;23.364;2023-02-28T05:52:18;60.65;;;29.40;;
33190;SDS011;19554;42.652;23.364;2023-02-28T05:54:43;55.63;;;29.77;;
33190;SDS011;19554;42.652;23.364;2023-02-28T05:57:10;53.67;;;28.17;;
33190;SDS011;19554;42.652;23.364;2023-02-28T05:59:36;51.70;;;27.00;;
33190;SDS011;19554;42.652;23.364;2023-02-28T06:02:04;48.60;;;27.05;;
33190;SDS011;19554;42.652;23.364;2023-02-28T06:04:40;66.22;;;33.00;;
33190;SDS011;19554;42.652;23.364;2023-02-28T06:07:06;68.57;;;37.08;;
33190;SDS011;19554;42.652;23.364;2023-02-28T06:09:32;58.97;;;29.83;;
33190;SDS011;19554;42.652;23.364;2023-02-28T06:11:59;54.38;;;29.27;;
33190;SDS011;19554;42.652;23.364;2023-02-28T06:14:25;52.50;;;28.25;;
33190;SDS011;19554;42.652;23.364;2023-02-28T06:16:50;61.63;;;30.98;;
33190;SDS011;19554;42.652;23.364;2023-02-28T06:19:16;60.70;;;30.98;;
33190;SDS011;19554;42.652;23.364;2023-02-28T06:21:42;53.25;;;30.50;;
33190;SDS011;19554;42.652;23.364;2023-02-28T06:24:07;56.05;;;29.08;;
33190;SDS011;19554;42.652;23.364;2023-02-28T06:26:33;66.90;;;33.17;;
33190;SDS011;19554;42.652;23.364;2023-02-28T06:28:58;64.78;;;34.38;;
33190;SDS011;19554;42.652;23.364;2023-02-28T06:34:47;59.45;;;31.25;;
33190;SDS011;19554;42.652;23.364;2023-02-28T06:37:12;59.97;;;31.02;;
33190;SDS011;19554;42.652;23.364;2023-02-28T06:39:38;51.90;;;27.85;;
33190;SDS011;19554;42.652;23.364;2023-02-28T06:42:04;51.42;;;28.90;;
33190;SDS011;19554;42.652;23.364;2023-02-28T06:44:29;49.08;;;26.60;;
33190;SDS011;19554;42.652;23.364;2023-02-28T06:49:27;47.90;;;26.70;;
33190;SDS011;19554;42.652;23.364;2023-02-28T06:51:53;45.83;;;27.35;;
33190;SDS011;19554;42.652;23.364;2023-02-28T06:54:19;50.95;;;27.60;;
33190;SDS011;19554;42.652;23.364;2023-02-28T06:56:44;56.60;;;28.33;;
33190;SDS011;19554;42.652;23.364;2023-02-28T06:59:09;62.60;;;31.35;;
33190;SDS011;19554;42.652;23.364;2023-02-28T07:01:35;61.92;;;30.15;;
33190;SDS011;19554;42.652;23.364;2023-02-28T07:04:00;52.03;;;26.77;;
33190;SDS011;19554;42.652;23.364;2023-02-28T07:06:27;56.95;;;28.50;;
33190;SDS011;19554;42.652;23.364;2023-02-28T07:08:53;62.75;;;32.55;;
33190;SDS011;19554;42.652;23.364;2023-02-28T07:11:22;57.30;;;31.08;;
33190;SDS011;19554;42.652;23.364;2023-02-28T07:13:50;60.38;;;32.42;;
33190;SDS011;19554;42.652;23.364;2023-02-28T07:16:16;58.47;;;31.63;;
33190;SDS011;19554;42.652;23.364;2023-02-28T07:18:41;59.38;;;32.45;;
33190;SDS011;19554;42.652;23.364;2023-02-28T07:21:08;56.10;;;30.08;;
33190;SDS011;19554;42.652;23.364;2023-02-28T07:23:34;59.97;;;32.00;;
33190;SDS011;19554;42.652;23.364;2023-02-28T07:26:00;54.17;;;29.75;;
33190;SDS011;19554;42.652;23.364;2023-02-28T07:28:26;51.33;;;27.40;;
33190;SDS011;19554;42.652;23.364;2023-02-28T07:30:52;53.95;;;29.52;;
33190;SDS011;19554;42.652;23.364;2023-02-28T07:33:17;51.25;;;29.08;;
33190;SDS011;19554;42.652;23.364;2023-02-28T07:35:43;56.97;;;29.83;;
33190;SDS011;19554;42.652;23.364;2023-02-28T07:38:08;58.08;;;29.10;;
33190;SDS011;19554;42.652;23.364;2023-02-28T07:40:34;52.28;;;27.48;;
33190;SDS011;19554;42.652;23.364;2023-02-28T07:43:00;47.30;;;25.10;;
33190;SDS011;19554;42.652;23.364;2023-02-28T07:45:27;46.42;;;26.00;;
33190;SDS011;19554;42.652;23.364;2023-02-28T07:47:59;46.83;;;23.52;;
33190;SDS011;19554;42.652;23.364;2023-02-28T07:50:25;46.08;;;23.55;;
33190;SDS011;19554;42.652;23.364;2023-02-28T07:52:50;47.90;;;23.40;;
33190;SDS011;19554;42.652;23.364;2023-02-28T07:55:15;48.95;;;24.65;;
33190;SDS011;19554;42.652;23.364;2023-02-28T07:57:41;47.15;;;23.75;;
33190;SDS011;19554;42.652;23.364;2023-02-28T08:00:08;51.60;;;23.50;;
33190;SDS011;19554;42.652;23.364;2023-02-28T08:02:35;42.65;;;23.10;;
33190;SDS011;19554;42.652;23.364;2023-02-28T08:05:01;43.90;;;24.02;;
33190;SDS011;19554;42.652;23.364;2023-02-28T08:07:26;45.70;;;24.15;;
33190;SDS011;19554;42.652;23.364;2023-02-28T08:09:52;43.45;;;24.35;;
33190;SDS011;19554;42.652;23.364;2023-02-28T08:12:17;48.40;;;25.27;;
33190;SDS011;19554;42.652;23.364;2023-02-28T08:14:43;45.92;;;24.27;;
33190;SDS011;19554;42.652;23.364;2023-02-28T08:17:09;46.13;;;23.23;;
33190;SDS011;19554;42.652;23.364;2023-02-28T08:19:34;49.83;;;24.88;;
33190;SDS011;19554;42.652;23.364;2023-02-28T08:22:00;46.28;;;24.60;;
33190;SDS011;19554;42.652;23.364;2023-02-28T08:24:25;47.35;;;22.55;;
33190;SDS011;19554;42.652;23.364;2023-02-28T08:26:50;48.60;;;24.20;;
33190;SDS011;19554;42.652;23.364;2023-02-28T08:29:16;45.55;;;21.58;;
33190;SDS011;19554;42.652;23.364;2023-02-28T08:31:41;49.45;;;23.80;;
33190;SDS011;19554;42.652;23.364;2023-02-28T08:34:08;53.03;;;22.90;;
33190;SDS011;19554;42.652;23.364;2023-02-28T08:36:35;48.65;;;23.60;;
33190;SDS011;19554;42.652;23.364;2023-02-28T08:39:01;45.58;;;21.58;;
33190;SDS011;19554;42.652;23.364;2023-02-28T08:41:27;43.30;;;20.20;;
33190;SDS011;19554;42.652;23.364;2023-02-28T08:43:52;46.50;;;22.63;;
33190;SDS011;19554;42.652;23.364;2023-02-28T08:46:18;42.83;;;21.58;;
33190;SDS011;19554;42.652;23.364;2023-02-28T08:48:44;41.88;;;21.63;;
33190;SDS011;19554;42.652;23.364;2023-02-28T08:51:11;46.92;;;22.60;;
33190;SDS011;19554;42.652;23.364;2023-02-28T08:53:39;46.28;;;21.10;;
33190;SDS011;19554;42.652;23.364;2023-02-28T08:56:07;35.17;;;17.85;;
33190;SDS011;19554;42.652;23.364;2023-02-28T08:58:34;44.80;;;20.80;;
33190;SDS011;19554;42.652;23.364;2023-02-28T09:01:00;48.25;;;20.90;;
33190;SDS011;19554;42.652;23.364;2023-02-28T09:03:25;35.40;;;16.23;;
33190;SDS011;19554;42.652;23.364;2023-02-28T09:05:59;41.75;;;18.85;;
33190;SDS011;19554;42.652;23.364;2023-02-28T09:08:28;43.47;;;21.25;;
33190;SDS011;19554;42.652;23.364;2023-02-28T09:10:55;41.88;;;19.35;;
33190;SDS011;19554;42.652;23.364;2023-02-28T09:13:22;40.97;;;18.85;;
33190;SDS011;19554;42.652;23.364;2023-02-28T09:15:49;42.55;;;20.63;;
33190;SDS011;19554;42.652;23.364;2023-02-28T09:18:14;40.30;;;19.63;;
33190;SDS011;19554;42.652;23.364;2023-02-28T09:20:40;48.47;;;20.33;;
33190;SDS011;19554;42.652;23.364;2023-02-28T09:23:07;42.38;;;19.50;;
33190;SDS011;19554;42.652;23.364;2023-02-28T09:25:33;42.60;;;20.75;;
33190;SDS011;19554;42.652;23.364;2023-02-28T09:27:59;46.75;;;20.67;;
33190;SDS011;19554;42.652;23.364;2023-02-28T09:30:25;41.28;;;19.92;;
33190;SDS011;19554;42.652;23.364;2023-02-28T09:32:50;38.85;;;19.92;;
33190;SDS011;19554;42.652;23.364;2023-02-28T09:35:26;43.30;;;20.83;;
33190;SDS011;19554;42.652;23.364;2023-02-28T09:37:52;48.80;;;21.58;;
33190;SDS011;19554;42.652;23.364;2023-02-28T09:40:18;43.58;;;20.88;;
33190;SDS011;19554;42.652;23.364;2023-02-28T09:42:46;45.67;;;18.63;;
33190;SDS011;19554;42.652;23.364;2023-02-28T09:48:04;43.63;;;19.27;;
33190;SDS011;19554;42.652;23.364;2023-02-28T09:50:38;38.90;;;18.65;;
33190;SDS011;19554;42.652;23.364;2023-02-28T09:53:19;38.10;;;18.65;;
33190;SDS011;19554;42.652;23.364;2023-02-28T09:55:53;31.48;;;15.35;;
33190;SDS011;19554;42.652;23.364;2023-02-28T10:01:03;34.10;;;18.67;;
33190;SDS011;19554;42.652;23.364;2023-02-28T10:03:39;35.13;;;18.33;;
33190;SDS011;19554;42.652;23.364;2023-02-28T10:06:13;36.92;;;18.17;;
33190;SDS011;19554;42.652;23.364;2023-02-28T10:08:57;39.97;;;19.25;;
33190;SDS011;19554;42.652;23.364;2023-02-28T10:11:28;41.78;;;16.98;;
33190;SDS011;19554;42.652;23.364;2023-02-28T10:14:16;39.95;;;17.33;;
33190;SDS011;19554;42.652;23.364;2023-02-28T10:16:46;37.30;;;18.63;;
33190;SDS011;19554;42.652;23.364;2023-02-28T10:19:28;39.30;;;18.42;;
33190;SDS011;19554;42.652;23.364;2023-02-28T10:22:22;41.53;;;17.85;;
33190;SDS011;19554;42.652;23.364;2023-02-28T10:24:54;34.88;;;16.90;;
33190;SDS011;19554;42.652;23.364;2023-02-28T10:27:26;42.45;;;18.60;;
33190;SDS011;19554;42.652;23.364;2023-02-28T10:30:01;36.30;;;17.20;;
33190;SDS011;19554;42.652;23.364;2023-02-28T10:32:32;30.83;;;15.35;;
33190;SDS011;19554;42.652;23.364;2023-02-28T10:37:51;41.05;;;16.15;;
33190;SDS011;19554;42.652;23.364;2023-02-28T10:46:09;43.20;;;16.50;;
33190;SDS011;19554;42.652;23.364;2023-02-28T10:51:37;37.05;;;16.08;;
33190;SDS011;19554;42.652;23.364;2023-02-28T10:54:04;39.13;;;16.80;;
33190;SDS011;19554;42.652;23.364;2023-02-28T10:56:30;41.97;;;18.63;;
33190;SDS011;19554;42.652;23.364;2023-02-28T11:01:55;36.63;;;17.40;;
33190;SDS011;19554;42.652;23.364;2023-02-28T11:06:58;35.65;;;18.42;;
33190;SDS011;19554;42.652;23.364;2023-02-28T11:09:31;32.35;;;17.02;;
33190;SDS011;19554;42.652;23.364;2023-02-28T11:12:17;43.33;;;17.27;;
33190;SDS011;19554;42.652;23.364;2023-02-28T11:14:48;37.03;;;16.73;;
33190;SDS011;19554;42.652;23.364;2023-02-28T11:17:21;36.65;;;17.08;;
33190;SDS011;19554;42.652;23.364;2023-02-28T11:19:50;40.97;;;17.50;;
33190;SDS011;19554;42.652;23.364;2023-02-28T11:22:19;50.03;;;19.15;;
33190;SDS011;19554;42.652;23.364;2023-02-28T11:24:51;40.60;;;17.33;;
33190;SDS011;19554;42.652;23.364;2023-02-28T11:29:57;45.40;;;20.30;;
33190;SDS011;19554;42.652;23.364;2023-02-28T11:32:24;43.95;;;19.08;;
33190;SDS011;19554;42.652;23.364;2023-02-28T11:37:34;36.40;;;16.67;;
33190;SDS011;19554;42.652;23.364;2023-02-28T11:39:59;38.17;;;17.52;;
33190;SDS011;19554;42.652;23.364;2023-02-28T11:53:27;42.03;;;19.83;;
33190;SDS011;19554;42.652;23.364;2023-02-28T12:02:01;36.08;;;18.77;;
33190;SDS011;19554;42.652;23.364;2023-02-28T12:13:01;32.13;;;16.63;;
33190;SDS011;19554;42.652;23.364;2023-02-28T12:24:50;39.25;;;17.58;;
33190;SDS011;19554;42.652;23.364;2023-02-28T12:30:01;42.88;;;18.77;;
33190;SDS011;19554;42.652;23.364;2023-02-28T12:32:30;34.33;;;16.80;;
33190;SDS011;19554;42.652;23.364;2023-02-28T12:35:11;37.33;;;18.20;;
33190;SDS011;19554;42.652;23.364;2023-02-28T12:37:41;32.77;;;17.13;;
33190;SDS011;19554;42.652;23.364;2023-02-28T12:40:15;36.95;;;15.68;;
33190;SDS011;19554;42.652;23.364;2023-02-28T12:42:47;41.92;;;17.48;;
33190;SDS011;19554;42.652;23.364;2023-02-28T12:45:19;43.83;;;16.52;;
33190;SDS011;19554;42.652;23.364;2023-02-28T12:47:52;32.80;;;16.45;;
33190;SDS011;19554;42.652;23.364;2023-02-28T12:50:25;40.05;;;17.17;;
33190;SDS011;19554;42.652;23.364;2023-02-28T12:52:59;34.70;;;17.02;;
33190;SDS011;19554;42.652;23.364;2023-02-28T13:01:02;33.25;;;15.05;;
33190;SDS011;19554;42.652;23.364;2023-02-28T13:06:15;36.58;;;16.70;;
33190;SDS011;19554;42.652;23.364;2023-02-28T13:14:02;38.22;;;16.42;;
33190;SDS011;19554;42.652;23.364;2023-02-28T13:19:16;36.38;;;17.15;;
33190;SDS011;19554;42.652;23.364;2023-02-28T13:21:45;34.72;;;16.65;;
33190;SDS011;19554;42.652;23.364;2023-02-28T13:24:11;32.70;;;13.77;;
33190;SDS011;19554;42.652;23.364;2023-02-28T13:29:28;35.22;;;13.25;;
33190;SDS011;19554;42.652;23.364;2023-02-28T13:39:50;32.85;;;12.57;;
33190;SDS011;19554;42.652;23.364;2023-02-28T13:42:33;30.52;;;13.10;;
33190;SDS011;19554;42.652;23.364;2023-02-28T13:47:39;35.38;;;13.88;;
33190;SDS011;19554;42.652;23.364;2023-02-28T14:00:31;35.47;;;14.25;;
33190;SDS011;19554;42.652;23.364;2023-02-28T14:05:41;35.35;;;14.30;;
33190;SDS011;19554;42.652;23.364;2023-02-28T14:08:08;35.35;;;15.93;;
33190;SDS011;19554;42.652;23.364;2023-02-28T14:10:46;31.17;;;14.57;;
33190;SDS011;19554;42.652;23.364;2023-02-28T14:13:36;31.10;;;13.00;;
33190;SDS011;19554;42.652;23.364;2023-02-28T14:16:05;34.07;;;14.50;;
33190;SDS011;19554;42.652;23.364;2023-02-28T14:18:35;31.45;;;14.32;;
33190;SDS011;19554;42.652;23.364;2023-02-28T14:23:55;30.55;;;14.18;;
33190;SDS011;19554;42.652;23.364;2023-02-28T14:37:37;30.63;;;14.38;;
33190;SDS011;19554;42.652;23.364;2023-02-28T14:40:04;35.13;;;15.73;;
33190;SDS011;19554;42.652;23.364;2023-02-28T14:42:39;32.58;;;14.90;;
33190;SDS011;19554;42.652;23.364;2023-02-28T14:45:17;30.63;;;12.50;;
33190;SDS011;19554;42.652;23.364;2023-02-28T14:47:46;29.25;;;14.48;;
33190;SDS011;19554;42.652;23.364;2023-02-28T14:50:18;29.92;;;14.27;;
33190;SDS011;19554;42.652;23.364;2023-02-28T14:52:46;33.83;;;14.30;;
33190;SDS011;19554;42.652;23.364;2023-02-28T14:55:16;37.30;;;16.15;;
33190;SDS011;19554;42.652;23.364;2023-02-28T14:57:51;38.13;;;15.63;;
33190;SDS011;19554;42.652;23.364;2023-02-28T15:02:53;30.05;;;15.00;;
33190;SDS011;19554;42.652;23.364;2023-02-28T15:05:27;27.13;;;9.15;;
33190;SDS011;19554;42.652;23.364;2023-02-28T15:08:14;36.75;;;14.65;;
33190;SDS011;19554;42.652;23.364;2023-02-28T15:10:44;28.17;;;13.95;;
33190;SDS011;19554;42.652;23.364;2023-02-28T15:13:19;37.58;;;13.48;;
33190;SDS011;19554;42.652;23.364;2023-02-28T15:15:47;37.17;;;13.85;;
33190;SDS011;19554;42.652;23.364;2023-02-28T15:20:48;24.48;;;12.05;;
33190;SDS011;19554;42.652;23.364;2023-02-28T15:23:14;26.15;;;12.07;;
33190;SDS011;19554;42.652;23.364;2023-02-28T15:25:40;32.78;;;12.35;;
33190;SDS011;19554;42.652;23.364;2023-02-28T15:28:09;26.65;;;11.82;;
33190;SDS011;19554;42.652;23.364;2023-02-28T15:30:49;25.20;;;12.30;;
33190;SDS011;19554;42.652;23.364;2023-02-28T15:35:44;28.20;;;12.68;;
33190;SDS011;19554;42.652;23.364;2023-02-28T15:38:15;28.65;;;12.93;;
33190;SDS011;19554;42.652;23.364;2023-02-28T15:40:41;27.75;;;12.40;;
33190;SDS011;19554;42.652;23.364;2023-02-28T15:43:16;27.95;;;13.20;;
33190;SDS011;19554;42.652;23.364;2023-02-28T15:45:50;30.48;;;12.90;;
33190;SDS011;19554;42.652;23.364;2023-02-28T15:48:19;28.63;;;12.77;;
33190;SDS011;19554;42.652;23.364;2023-02-28T15:50:48;25.48;;;11.57;;
33190;SDS011;19554;42.652;23.364;2023-02-28T15:53:17;24.98;;;10.02;;
33190;SDS011;19554;42.652;23.364;2023-02-28T15:55:51;28.45;;;10.13;;
33190;SDS011;19554;42.652;23.364;2023-02-28T15:58:23;18.45;;;9.68;;
33190;SDS011;19554;42.652;23.364;2023-02-28T16:01:00;27.48;;;9.75;;
33190;SDS011;19554;42.652;23.364;2023-02-28T16:03:37;25.70;;;10.13;;
33190;SDS011;19554;42.652;23.364;2023-02-28T16:08:50;23.42;;;10.57;;
33190;SDS011;19554;42.652;23.364;2023-02-28T16:11:16;19.75;;;10.80;;
33190;SDS011;19554;42.652;23.364;2023-02-28T16:13:42;19.92;;;10.98;;
33190;SDS011;19554;42.652;23.364;2023-02-28T16:16:07;17.90;;;10.27;;
33190;SDS011;19554;42.652;23.364;2023-02-28T16:18:33;17.40;;;10.25;;
33190;SDS011;19554;42.652;23.364;2023-02-28T16:20:58;20.15;;;10.98;;
33190;SDS011;19554;42.652;23.364;2023-02-28T16:23:24;17.63;;;9.27;;
33190;SDS011;19554;42.652;23.364;2023-02-28T16:25:49;18.73;;;10.23;;
33190;SDS011;19554;42.652;23.364;2023-02-28T16:28:17;19.20;;;10.50;;
33190;SDS011;19554;42.652;23.364;2023-02-28T16:30:43;17.35;;;10.25;;
33190;SDS011;19554;42.652;23.364;2023-02-28T16:33:09;15.88;;;9.55;;
33190;SDS011;19554;42.652;23.364;2023-02-28T16:35:34;21.90;;;10.13;;
33190;SDS011;19554;42.652;23.364;2023-02-28T16:38:00;24.80;;;10.55;;
33190;SDS011;19554;42.652;23.364;2023-02-28T16:40:26;15.27;;;8.70;;
33190;SDS011;19554;42.652;23.364;2023-02-28T16:42:54;17.58;;;8.65;;
33190;SDS011;19554;42.652;23.364;2023-02-28T16:47:51;20.67;;;9.25;;
33190;SDS011;19554;42.652;23.364;2023-02-28T16:50:18;21.98;;;8.50;;
33190;SDS011;19554;42.652;23.364;2023-02-28T16:52:45;17.55;;;8.80;;
33190;SDS011;19554;42.652;23.364;2023-02-28T16:55:10;15.05;;;8.48;;
33190;SDS011;19554;42.652;23.364;2023-02-28T16:57:36;16.55;;;8.57;;
33190;SDS011;19554;42.652;23.364;2023-02-28T17:00:02;11.02;;;6.78;;
33190;SDS011;19554;42.652;23.364;2023-02-28T17:02:30;16.48;;;8.05;;
33190;SDS011;19554;42.652;23.364;2023-02-28T17:04:55;17.75;;;8.23;;
33190;SDS011;19554;42.652;23.364;2023-02-28T17:07:20;19.90;;;7.47;;
33190;SDS011;19554;42.652;23.364;2023-02-28T17:09:46;11.52;;;7.10;;
33190;SDS011;19554;42.652;23.364;2023-02-28T17:12:11;14.02;;;7.38;;